Time;durP1;ratioP1;P1;durP2;ratioP2;P2;SDS_P1;SDS_P2;PMS_P1;PMS_P2;Temp;Humidity;BMP_temperature;BMP_pressure;BME280_temperature;BME280_humidity;BME280_pressure;Samples;Min_cycle;Max_cycle;Signal;HPM_P1;HPM_P2
2023/03/23 00:11:36;;;;;;;41.20;26.80;;;;;;;14.03;84.15;99539.77;681996;1261;140225;-88
2023/03/23 00:26:42;;;;;;;41.50;25.70;;;;;;;14.06;84.10;99523.75;682281;1265;138728;-88
2023/03/23 00:41:46;;;;;;;42.70;24.70;;;;;;;14.04;83.20;99513.27;682342;1265;139376;-87
2023/03/23 00:56:49;;;;;;;43.40;24.90;;;;;;;14.00;82.81;99497.35;682316;1266;161894;-87
2023/03/23 01:11:55;;;;;;;40.00;25.80;;;;;;;13.90;82.87;99495.33;682130;1265;139821;-88
2023/03/23 01:26:57;;;;;;;47.60;28.10;;;;;;;13.79;82.42;99489.01;682271;1265;140625;-89
2023/03/23 01:41:59;;;;;;;41.80;26.00;;;;;;;13.74;82.33;99480.53;682272;1266;140494;-86
2023/03/23 01:57:10;;;;;;;44.40;26.20;;;;;;;13.73;82.17;99472.45;682010;1265;140122;-87
2023/03/23 02:12:12;;;;;;;44.30;25.90;;;;;;;13.78;82.68;99471.16;682233;1265;139768;-86
2023/03/23 02:27:27;;;;;;;41.90;24.80;;;;;;;13.77;81.98;99470.20;682204;1266;139546;-87
2023/03/23 02:42:34;;;;;;;43.20;25.70;;;;;;;13.70;82.24;99451.21;682436;1265;139522;-87
2023/03/23 02:57:37;;;;;;;46.00;28.30;;;;;;;13.57;82.60;99439.35;682156;1265;141022;-85
2023/03/23 03:13:10;;;;;;;43.40;24.70;;;;;;;13.43;82.78;99434.27;682304;1265;139770;-86
2023/03/23 03:28:16;;;;;;;47.20;25.60;;;;;;;13.26;82.90;99405.05;681859;1263;140386;-86
2023/03/23 03:43:19;;;;;;;40.90;24.30;;;;;;;13.01;83.68;99399.05;682000;1265;149534;-85
2023/03/23 03:58:22;;;;;;;45.60;26.70;;;;;;;12.90;84.10;99405.80;682120;1266;139938;-86
2023/03/23 04:13:43;;;;;;;44.00;26.90;;;;;;;12.84;84.03;99396.70;682263;1264;139121;-86
2023/03/23 04:28:55;;;;;;;47.30;27.50;;;;;;;12.76;84.14;99391.32;682122;1265;140018;-86
2023/03/23 04:44:17;;;;;;;57.00;33.30;;;;;;;12.63;84.97;99377.65;681854;1266;139487;-86
2023/03/23 04:59:27;;;;;;;46.20;26.90;;;;;;;12.57;85.14;99369.36;682101;1266;139754;-85
2023/03/23 05:14:41;;;;;;;52.30;30.10;;;;;;;12.50;85.10;99372.40;682234;1266;139210;-87
2023/03/23 05:29:48;;;;;;;57.10;28.60;;;;;;;12.49;84.53;99392.69;681966;1263;139203;-87
2023/03/23 05:44:50;;;;;;;53.10;29.30;;;;;;;12.51;84.43;99383.39;681894;1266;140699;-87
2023/03/23 05:59:53;;;;;;;57.80;30.60;;;;;;;12.82;84.26;99376.21;682251;1265;139691;-84
2023/03/23 06:14:58;;;;;;;38.20;24.70;;;;;;;13.26;84.21;99355.34;682100;1266;138998;-90
2023/03/23 06:30:14;;;;;;;43.50;23.80;;;;;;;13.41;83.71;99358.98;682206;1264;140053;-89
2023/03/23 06:45:19;;;;;;;59.50;33.60;;;;;;;13.52;83.98;99352.04;682090;1260;139752;-87
2023/03/23 07:00:22;;;;;;;42.30;24.40;;;;;;;13.83;83.63;99348.63;682273;1260;139049;-88
2023/03/23 07:15:25;;;;;;;38.10;23.00;;;;;;;14.29;82.90;99331.31;682068;1266;139703;-88
2023/03/23 07:30:31;;;;;;;39.20;23.50;;;;;;;14.50;82.28;99307.06;682297;1261;139550;-88
2023/03/23 07:45:34;;;;;;;35.30;21.80;;;;;;;15.08;80.92;99277.04;682143;1261;140201;-91
2023/03/23 08:00:36;;;;;;;24.70;15.00;;;;;;;15.88;76.86;99266.09;682220;1262;139776;-89
2023/03/23 08:15:39;;;;;;;22.20;12.40;;;;;;;16.09;73.73;99287.69;682186;1265;139733;-89
2023/03/23 08:31:09;;;;;;;28.20;13.10;;;;;;;17.13;68.70;99276.16;682278;1266;140177;-90
2023/03/23 08:46:39;;;;;;;14.80;9.70;;;;;;;17.66;66.24;99277.76;682138;1260;139857;-89
2023/03/23 09:02:04;;;;;;;17.10;9.20;;;;;;;18.04;63.94;99286.81;682255;1261;139684;-89
2023/03/23 09:17:17;;;;;;;18.10;9.30;;;;;;;18.90;62.19;99289.73;682109;1260;139419;-90
2023/03/23 09:32:22;;;;;;;18.20;10.60;;;;;;;19.02;60.35;99276.73;682246;1267;139583;-87
2023/03/23 09:47:23;;;;;;;9.20;6.80;;;;;;;19.52;59.38;99275.00;682050;1263;138724;-88
2023/03/23 10:02:32;;;;;;;12.30;5.80;;;;;;;19.55;58.18;99249.03;682275;1265;139672;-87
2023/03/23 10:18:13;;;;;;;16.50;6.70;;;;;;;19.38;58.72;99270.88;682207;1260;138880;-86
2023/03/23 10:33:22;;;;;;;14.30;8.40;;;;;;;19.27;59.26;99269.02;682183;1263;141771;-86
2023/03/23 10:48:36;;;;;;;15.90;5.60;;;;;;;19.20;59.17;99269.77;682203;1265;138636;-87
2023/03/23 11:03:43;;;;;;;11.30;5.40;;;;;;;18.81;59.47;99282.50;682332;1265;139451;-87
2023/03/23 11:18:45;;;;;;;10.70;5.80;;;;;;;18.52;60.32;99290.36;682265;1262;139550;-86
2023/03/23 11:33:57;;;;;;;57.70;25.00;;;;;;;18.45;61.81;99298.70;682255;1264;139813;-87
2023/03/23 11:49:10;;;;;;;45.50;25.60;;;;;;;17.94;64.02;99315.11;682344;1264;139345;-86
2023/03/23 12:04:33;;;;;;;14.70;7.60;;;;;;;17.72;65.45;99326.14;682155;1262;139337;-87
2023/03/23 12:19:36;;;;;;;32.80;16.40;;;;;;;17.39;67.50;99327.52;682210;1263;138888;-85
2023/03/23 12:34:40;;;;;;;15.50;11.00;;;;;;;17.56;68.57;99320.02;682204;1261;139565;-87
2023/03/23 12:50:03;;;;;;;19.90;11.20;;;;;;;17.51;68.79;99319.55;682383;1262;139619;-85
2023/03/23 13:05:11;;;;;;;12.20;7.30;;;;;;;17.32;70.15;99318.85;682087;1265;140943;-87
2023/03/23 13:20:29;;;;;;;12.10;6.10;;;;;;;17.13;71.76;99320.30;682094;1263;140237;-87
2023/03/23 13:35:40;;;;;;;8.30;5.30;;;;;;;17.43;72.10;99320.64;682165;1265;139539;-87
2023/03/23 13:50:53;;;;;;;19.00;6.60;;;;;;;17.45;71.67;99327.05;682001;1263;138752;-88
2023/03/23 14:05:58;;;;;;;10.30;6.00;;;;;;;17.15;71.65;99318.45;681928;1265;139217;-90
2023/03/23 14:21:01;;;;;;;18.40;7.30;;;;;;;16.89;73.24;99313.02;682358;1265;137893;-89
2023/03/23 14:36:04;;;;;;;12.10;7.00;;;;;;;16.95;73.77;99307.71;682198;1265;139547;-90
2023/03/23 14:51:07;;;;;;;8.70;6.30;;;;;;;17.12;72.74;99313.48;682181;1265;139664;-89
2023/03/23 15:06:16;;;;;;;21.50;12.60;;;;;;;17.25;71.55;99314.56;682061;1265;138846;-89
2023/03/23 15:21:31;;;;;;;10.00;5.90;;;;;;;17.16;71.23;99313.36;682190;1265;139346;-91
2023/03/23 15:36:36;;;;;;;16.00;8.30;;;;;;;17.08;70.51;99310.98;682274;1265;139055;-94
2023/03/23 15:56:10;;;;;;;11.30;7.00;;;;;;;17.14;69.67;99306.08;658083;1298;545181;-88
2023/03/23 16:11:14;;;;;;;8.90;5.80;;;;;;;17.06;68.98;99309.84;677294;1273;137303;-90
2023/03/23 16:26:20;;;;;;;20.50;12.80;;;;;;;17.15;68.78;99322.75;677914;1273;139915;-89
2023/03/23 16:41:36;;;;;;;28.60;13.20;;;;;;;17.08;70.05;99354.85;674399;1275;139450;-94
2023/03/23 16:56:39;;;;;;;20.30;15.80;;;;;;;16.89;70.93;99364.89;675874;1265;138756;-95
2023/03/23 17:11:42;;;;;;;15.40;6.60;;;;;;;16.68;71.42;99347.40;676595;1267;138813;-89
2023/03/23 17:26:47;;;;;;;17.70;11.70;;;;;;;16.54;72.45;99347.05;675198;1267;138394;-91
2023/03/23 17:41:50;;;;;;;17.00;9.00;;;;;;;16.58;72.70;99355.56;679341;1267;140431;-88
2023/03/23 17:56:56;;;;;;;13.10;7.70;;;;;;;16.48;73.44;99364.18;678184;1265;138681;-90
2023/03/23 18:12:02;;;;;;;12.90;7.30;;;;;;;16.39;74.37;99364.39;676504;1276;138220;-93
2023/03/23 18:27:06;;;;;;;18.30;10.50;;;;;;;16.35;74.78;99371.97;677948;1264;138072;-91
2023/03/23 18:42:10;;;;;;;13.50;8.00;;;;;;;16.39;75.25;99379.45;676011;1268;137424;-90
2023/03/23 18:57:16;;;;;;;15.90;9.10;;;;;;;16.28;75.38;99381.65;674663;1261;138618;-91
2023/03/23 19:12:22;;;;;;;22.90;13.00;;;;;;;15.92;76.31;99394.23;673400;1267;140244;-90
2023/03/23 19:27:26;;;;;;;15.30;8.50;;;;;;;15.68;78.04;99387.66;675722;1265;142369;-89
2023/03/23 19:42:31;;;;;;;15.00;9.90;;;;;;;15.61;79.35;99394.23;674590;1264;138479;-87
2023/03/23 19:57:36;;;;;;;78.10;40.00;;;;;;;15.50;79.83;99407.56;676137;1262;139994;-91
2023/03/23 20:12:41;;;;;;;26.20;14.00;;;;;;;15.55;79.42;99412.31;675069;1267;139051;-91
2023/03/23 20:27:45;;;;;;;47.60;19.30;;;;;;;15.67;79.75;99436.99;676531;1267;138834;-89
2023/03/23 20:42:51;;;;;;;11.20;6.10;;;;;;;15.03;82.90;99504.05;674164;1266;138834;-87
2023/03/23 20:57:55;;;;;;;5.90;3.60;;;;;;;14.59;85.10;99505.89;673196;1265;138756;-90
2023/03/23 21:13:00;;;;;;;35.50;16.30;;;;;;;14.55;85.21;99508.89;674657;1265;138560;-87
2023/03/23 21:28:05;;;;;;;8.50;3.90;;;;;;;14.55;85.55;99505.17;674099;1267;140192;-91
2023/03/23 21:43:12;;;;;;;7.00;4.00;;;;;;;14.21;87.65;99533.46;673095;1266;137483;-92
2023/03/23 21:58:26;;;;;;;9.60;4.30;;;;;;;14.20;87.64;99514.81;674222;1266;138709;-92
2023/03/23 22:13:31;;;;;;;9.00;5.20;;;;;;;14.15;87.54;99489.01;673285;1261;138836;-89
2023/03/23 22:28:36;;;;;;;8.80;6.10;;;;;;;14.06;87.12;99508.05;672141;1266;137504;-92
2023/03/23 22:43:39;;;;;;;6.40;5.00;;;;;;;13.75;88.88;99557.60;674624;1264;138046;-89
2023/03/23 22:58:43;;;;;;;9.70;5.40;;;;;;;13.58;91.93;99551.96;675791;1264;140116;-91
2023/03/23 23:13:47;;;;;;;8.00;5.80;;;;;;;13.73;92.07;99542.19;679067;1262;139798;-87
2023/03/23 23:38:45;;;;;;;5.20;3.40;;;;;;;13.69;91.93;99520.41;663288;1297;545584;-90
2023/03/23 23:53:52;;;;;;;6.80;3.40;;;;;;;13.63;92.58;99528.58;670490;1278;140127;-88
